sensor_id;sensor_type;location;lat;lon;timestamp;temperature;humidity
53876;DHT22;39789;53.216;5.624;2022-12-07T00:02:04;4.30;99.90
53876;DHT22;39789;53.216;5.624;2022-12-07T00:04:30;4.20;99.90
53876;DHT22;39789;53.216;5.624;2022-12-07T00:06:55;4.10;99.90
53876;DHT22;39789;53.216;5.624;2022-12-07T00:09:21;4.20;99.90
53876;DHT22;39789;53.216;5.624;2022-12-07T00:11:50;4.20;99.90
53876;DHT22;39789;53.216;5.624;2022-12-07T00:14:17;4.20;99.90
53876;DHT22;39789;53.216;5.624;2022-12-07T00:16:44;4.40;99.90
53876;DHT22;39789;53.216;5.624;2022-12-07T00:19:11;4.50;99.90
53876;DHT22;39789;53.216;5.624;2022-12-07T00:21:37;4.50;99.90
53876;DHT22;39789;53.216;5.624;2022-12-07T00:24:04;4.50;99.90
53876;DHT22;39789;53.216;5.624;2022-12-07T00:26:35;4.60;99.90
53876;DHT22;39789;53.216;5.624;2022-12-07T00:29:03;4.70;99.90
53876;DHT22;39789;53.216;5.624;2022-12-07T00:31:35;4.80;99.90
53876;DHT22;39789;53.216;5.624;2022-12-07T00:34:17;4.80;99.90
53876;DHT22;39789;53.216;5.624;2022-12-07T00:36:43;4.70;99.90
53876;DHT22;39789;53.216;5.624;2022-12-07T00:39:08;4.70;99.90
53876;DHT22;39789;53.216;5.624;2022-12-07T00:41:34;4.60;99.90
53876;DHT22;39789;53.216;5.624;2022-12-07T00:43:59;4.50;99.90
53876;DHT22;39789;53.216;5.624;2022-12-07T00:46:25;4.40;99.90
53876;DHT22;39789;53.216;5.624;2022-12-07T00:48:52;4.30;99.90
53876;DHT22;39789;53.216;5.624;2022-12-07T00:51:21;4.30;99.90
53876;DHT22;39789;53.216;5.624;2022-12-07T00:53:47;4.20;99.90
53876;DHT22;39789;53.216;5.624;2022-12-07T00:56:16;4.10;99.90
53876;DHT22;39789;53.216;5.624;2022-12-07T00:58:41;4.10;99.90
53876;DHT22;39789;53.216;5.624;2022-12-07T01:01:08;4.10;99.90
53876;DHT22;39789;53.216;5.624;2022-12-07T01:03:35;4.10;99.90
53876;DHT22;39789;53.216;5.624;2022-12-07T01:06:01;4.10;99.90
53876;DHT22;39789;53.216;5.624;2022-12-07T01:08:27;4.10;99.90
53876;DHT22;39789;53.216;5.624;2022-12-07T01:11:03;4.10;99.90
53876;DHT22;39789;53.216;5.624;2022-12-07T01:13:29;4.10;99.90
53876;DHT22;39789;53.216;5.624;2022-12-07T01:16:00;4.10;99.90
53876;DHT22;39789;53.216;5.624;2022-12-07T01:18:28;4.20;99.90
53876;DHT22;39789;53.216;5.624;2022-12-07T01:21:05;4.30;99.90
53876;DHT22;39789;53.216;5.624;2022-12-07T01:23:32;4.30;99.90
53876;DHT22;39789;53.216;5.624;2022-12-07T01:25:59;4.50;99.90
53876;DHT22;39789;53.216;5.624;2022-12-07T01:28:26;4.50;99.90
53876;DHT22;39789;53.216;5.624;2022-12-07T01:31:03;4.50;99.90
53876;DHT22;39789;53.216;5.624;2022-12-07T01:33:31;4.50;99.90
53876;DHT22;39789;53.216;5.624;2022-12-07T01:38:44;4.70;99.90
53876;DHT22;39789;53.216;5.624;2022-12-07T01:41:10;4.80;99.90
53876;DHT22;39789;53.216;5.624;2022-12-07T01:43:36;4.90;99.90
53876;DHT22;39789;53.216;5.624;2022-12-07T01:46:03;5.00;99.90
53876;DHT22;39789;53.216;5.624;2022-12-07T01:48:38;5.00;99.90
53876;DHT22;39789;53.216;5.624;2022-12-07T01:51:09;5.00;99.90
53876;DHT22;39789;53.216;5.624;2022-12-07T01:53:40;4.90;99.90
53876;DHT22;39789;53.216;5.624;2022-12-07T01:56:11;4.80;99.90
53876;DHT22;39789;53.216;5.624;2022-12-07T01:58:38;4.70;99.90
53876;DHT22;39789;53.216;5.624;2022-12-07T02:01:04;4.70;99.90
53876;DHT22;39789;53.216;5.624;2022-12-07T02:03:39;4.70;99.90
53876;DHT22;39789;53.216;5.624;2022-12-07T02:06:07;4.40;99.90
53876;DHT22;39789;53.216;5.624;2022-12-07T02:08:33;4.60;99.90
53876;DHT22;39789;53.216;5.624;2022-12-07T02:11:00;4.50;99.90
53876;DHT22;39789;53.216;5.624;2022-12-07T02:13:32;4.40;99.90
53876;DHT22;39789;53.216;5.624;2022-12-07T02:16:25;4.30;99.90
53876;DHT22;39789;53.216;5.624;2022-12-07T02:24:16;4.30;99.90
53876;DHT22;39789;53.216;5.624;2022-12-07T02:27:17;4.40;99.90
53876;DHT22;39789;53.216;5.624;2022-12-07T02:30:00;4.60;99.90
53876;DHT22;39789;53.216;5.624;2022-12-07T02:32:31;4.70;99.90
53876;DHT22;39789;53.216;5.624;2022-12-07T02:35:15;4.80;99.90
53876;DHT22;39789;53.216;5.624;2022-12-07T02:37:55;4.80;99.90
53876;DHT22;39789;53.216;5.624;2022-12-07T02:40:33;4.80;99.90
53876;DHT22;39789;53.216;5.624;2022-12-07T02:43:06;4.70;99.90
53876;DHT22;39789;53.216;5.624;2022-12-07T02:45:36;4.60;99.90
53876;DHT22;39789;53.216;5.624;2022-12-07T02:48:02;4.50;99.90
53876;DHT22;39789;53.216;5.624;2022-12-07T02:50:29;4.50;99.90
53876;DHT22;39789;53.216;5.624;2022-12-07T02:52:54;4.40;99.90
53876;DHT22;39789;53.216;5.624;2022-12-07T02:55:26;4.40;99.90
53876;DHT22;39789;53.216;5.624;2022-12-07T02:58:03;4.40;99.90
53876;DHT22;39789;53.216;5.624;2022-12-07T03:00:31;4.40;99.90
53876;DHT22;39789;53.216;5.624;2022-12-07T03:03:05;4.50;99.90
53876;DHT22;39789;53.216;5.624;2022-12-07T03:08:50;4.70;99.90
53876;DHT22;39789;53.216;5.624;2022-12-07T03:11:42;4.70;99.90
53876;DHT22;39789;53.216;5.624;2022-12-07T03:14:17;4.60;99.90
53876;DHT22;39789;53.216;5.624;2022-12-07T03:16:55;4.60;99.90
53876;DHT22;39789;53.216;5.624;2022-12-07T03:19:24;4.50;99.90
53876;DHT22;39789;53.216;5.624;2022-12-07T03:21:57;4.60;99.90
53876;DHT22;39789;53.216;5.624;2022-12-07T03:24:27;4.60;99.90
53876;DHT22;39789;53.216;5.624;2022-12-07T03:27:03;4.60;99.90
53876;DHT22;39789;53.216;5.624;2022-12-07T03:29:54;4.60;99.90
53876;DHT22;39789;53.216;5.624;2022-12-07T03:32:34;4.50;99.90
53876;DHT22;39789;53.216;5.624;2022-12-07T03:35:25;4.50;99.90
53876;DHT22;39789;53.216;5.624;2022-12-07T03:37:59;4.50;99.90
53876;DHT22;39789;53.216;5.624;2022-12-07T03:43:03;4.60;99.90
53876;DHT22;39789;53.216;5.624;2022-12-07T03:45:43;4.70;99.90
53876;DHT22;39789;53.216;5.624;2022-12-07T03:48:24;4.80;99.90
53876;DHT22;39789;53.216;5.624;2022-12-07T03:51:06;4.80;99.90
53876;DHT22;39789;53.216;5.624;2022-12-07T03:53:46;4.80;99.90
53876;DHT22;39789;53.216;5.624;2022-12-07T03:56:14;4.70;99.90
53876;DHT22;39789;53.216;5.624;2022-12-07T03:58:40;4.60;99.90
53876;DHT22;39789;53.216;5.624;2022-12-07T04:01:06;4.60;99.90
53876;DHT22;39789;53.216;5.624;2022-12-07T04:03:32;4.60;99.90
53876;DHT22;39789;53.216;5.624;2022-12-07T04:05:57;4.60;99.90
53876;DHT22;39789;53.216;5.624;2022-12-07T04:08:24;4.50;99.90
53876;DHT22;39789;53.216;5.624;2022-12-07T04:10:50;4.60;99.90
53876;DHT22;39789;53.216;5.624;2022-12-07T04:13:16;4.50;99.90
53876;DHT22;39789;53.216;5.624;2022-12-07T04:15:41;4.50;99.90
53876;DHT22;39789;53.216;5.624;2022-12-07T04:18:07;4.30;99.90
53876;DHT22;39789;53.216;5.624;2022-12-07T04:20:32;4.40;99.90
53876;DHT22;39789;53.216;5.624;2022-12-07T04:22:58;4.40;99.90
53876;DHT22;39789;53.216;5.624;2022-12-07T04:25:23;4.50;99.90
53876;DHT22;39789;53.216;5.624;2022-12-07T04:27:49;4.50;99.90
53876;DHT22;39789;53.216;5.624;2022-12-07T04:30:14;4.50;99.90
53876;DHT22;39789;53.216;5.624;2022-12-07T04:32:40;4.50;99.90
53876;DHT22;39789;53.216;5.624;2022-12-07T04:35:06;4.60;99.90
53876;DHT22;39789;53.216;5.624;2022-12-07T04:37:32;4.60;99.90
53876;DHT22;39789;53.216;5.624;2022-12-07T04:39:57;4.60;99.90
53876;DHT22;39789;53.216;5.624;2022-12-07T04:42:23;4.60;99.90
53876;DHT22;39789;53.216;5.624;2022-12-07T04:44:48;4.60;99.90
53876;DHT22;39789;53.216;5.624;2022-12-07T04:47:14;4.60;99.90
53876;DHT22;39789;53.216;5.624;2022-12-07T04:49:39;4.60;99.90
53876;DHT22;39789;53.216;5.624;2022-12-07T04:52:05;4.70;99.90
53876;DHT22;39789;53.216;5.624;2022-12-07T04:54:31;4.50;99.90
53876;DHT22;39789;53.216;5.624;2022-12-07T04:56:56;4.50;99.90
53876;DHT22;39789;53.216;5.624;2022-12-07T04:59:25;4.40;99.90
53876;DHT22;39789;53.216;5.624;2022-12-07T05:01:50;4.30;99.90
53876;DHT22;39789;53.216;5.624;2022-12-07T05:04:16;4.30;99.90
53876;DHT22;39789;53.216;5.624;2022-12-07T05:06:43;4.20;99.90
53876;DHT22;39789;53.216;5.624;2022-12-07T05:09:09;4.20;99.90
53876;DHT22;39789;53.216;5.624;2022-12-07T05:11:34;4.10;99.90
53876;DHT22;39789;53.216;5.624;2022-12-07T05:14:09;4.00;99.90
53876;DHT22;39789;53.216;5.624;2022-12-07T05:16:36;4.00;99.90
53876;DHT22;39789;53.216;5.624;2022-12-07T05:19:02;3.90;99.90
53876;DHT22;39789;53.216;5.624;2022-12-07T05:21:28;3.80;99.90
53876;DHT22;39789;53.216;5.624;2022-12-07T05:23:54;3.70;99.90
53876;DHT22;39789;53.216;5.624;2022-12-07T05:26:19;3.70;99.90
53876;DHT22;39789;53.216;5.624;2022-12-07T05:28:45;3.60;99.90
53876;DHT22;39789;53.216;5.624;2022-12-07T05:31:10;3.60;99.90
53876;DHT22;39789;53.216;5.624;2022-12-07T05:33:36;3.60;99.90
53876;DHT22;39789;53.216;5.624;2022-12-07T05:36:01;3.50;99.90
53876;DHT22;39789;53.216;5.624;2022-12-07T05:38:31;3.50;99.90
53876;DHT22;39789;53.216;5.624;2022-12-07T05:41:03;3.50;99.90
53876;DHT22;39789;53.216;5.624;2022-12-07T05:43:29;3.50;99.90
53876;DHT22;39789;53.216;5.624;2022-12-07T05:45:55;3.40;99.90
53876;DHT22;39789;53.216;5.624;2022-12-07T05:48:21;3.40;99.90
53876;DHT22;39789;53.216;5.624;2022-12-07T05:50:48;3.30;99.90
53876;DHT22;39789;53.216;5.624;2022-12-07T05:53:14;3.30;99.90
53876;DHT22;39789;53.216;5.624;2022-12-07T05:55:39;3.40;99.90
53876;DHT22;39789;53.216;5.624;2022-12-07T05:58:05;3.30;99.90
53876;DHT22;39789;53.216;5.624;2022-12-07T06:00:49;3.40;99.90
53876;DHT22;39789;53.216;5.624;2022-12-07T06:03:15;3.50;99.90
53876;DHT22;39789;53.216;5.624;2022-12-07T06:05:40;3.50;99.90
53876;DHT22;39789;53.216;5.624;2022-12-07T06:08:06;3.50;99.90
53876;DHT22;39789;53.216;5.624;2022-12-07T06:10:32;3.40;99.90
53876;DHT22;39789;53.216;5.624;2022-12-07T06:12:58;4.70;99.90
53876;DHT22;39789;53.216;5.624;2022-12-07T06:15:23;3.40;99.90
53876;DHT22;39789;53.216;5.624;2022-12-07T06:17:49;3.40;99.90
53876;DHT22;39789;53.216;5.624;2022-12-07T06:20:15;3.40;99.90
53876;DHT22;39789;53.216;5.624;2022-12-07T06:22:40;4.50;99.90
53876;DHT22;39789;53.216;5.624;2022-12-07T06:25:07;3.40;99.90
53876;DHT22;39789;53.216;5.624;2022-12-07T06:27:32;3.40;99.90
53876;DHT22;39789;53.216;5.624;2022-12-07T06:29:58;3.30;99.90
53876;DHT22;39789;53.216;5.624;2022-12-07T06:32:24;3.30;99.90
53876;DHT22;39789;53.216;5.624;2022-12-07T06:34:50;3.30;99.90
53876;DHT22;39789;53.216;5.624;2022-12-07T06:37:15;3.30;99.90
53876;DHT22;39789;53.216;5.624;2022-12-07T06:39:41;3.20;99.90
53876;DHT22;39789;53.216;5.624;2022-12-07T06:42:06;3.20;99.90
53876;DHT22;39789;53.216;5.624;2022-12-07T06:44:32;3.10;99.90
53876;DHT22;39789;53.216;5.624;2022-12-07T06:46:58;3.20;99.90
53876;DHT22;39789;53.216;5.624;2022-12-07T06:49:23;3.20;99.90
53876;DHT22;39789;53.216;5.624;2022-12-07T06:51:49;3.30;99.90
53876;DHT22;39789;53.216;5.624;2022-12-07T06:54:15;3.30;99.90
53876;DHT22;39789;53.216;5.624;2022-12-07T06:56:41;3.40;99.90
53876;DHT22;39789;53.216;5.624;2022-12-07T06:59:07;3.40;99.90
53876;DHT22;39789;53.216;5.624;2022-12-07T07:01:35;5.00;99.90
53876;DHT22;39789;53.216;5.624;2022-12-07T07:07:42;3.90;99.90
53876;DHT22;39789;53.216;5.624;2022-12-07T07:10:07;4.00;99.90
53876;DHT22;39789;53.216;5.624;2022-12-07T07:12:33;3.90;99.90
53876;DHT22;39789;53.216;5.624;2022-12-07T07:14:58;3.90;99.90
53876;DHT22;39789;53.216;5.624;2022-12-07T07:17:24;3.80;99.90
53876;DHT22;39789;53.216;5.624;2022-12-07T07:19:50;3.70;99.90
53876;DHT22;39789;53.216;5.624;2022-12-07T07:22:15;3.60;99.90
53876;DHT22;39789;53.216;5.624;2022-12-07T07:24:41;3.50;99.90
53876;DHT22;39789;53.216;5.624;2022-12-07T07:27:06;3.50;99.90
53876;DHT22;39789;53.216;5.624;2022-12-07T07:29:32;3.40;99.90
53876;DHT22;39789;53.216;5.624;2022-12-07T07:31:57;3.40;99.90
53876;DHT22;39789;53.216;5.624;2022-12-07T07:34:23;3.40;99.90
53876;DHT22;39789;53.216;5.624;2022-12-07T07:36:48;3.40;99.90
53876;DHT22;39789;53.216;5.624;2022-12-07T07:39:14;3.50;99.90
53876;DHT22;39789;53.216;5.624;2022-12-07T07:41:40;3.60;99.90
53876;DHT22;39789;53.216;5.624;2022-12-07T07:44:05;3.60;99.90
53876;DHT22;39789;53.216;5.624;2022-12-07T07:46:31;3.40;99.90
53876;DHT22;39789;53.216;5.624;2022-12-07T07:52:40;2.70;99.90
53876;DHT22;39789;53.216;5.624;2022-12-07T07:55:06;3.60;99.90
53876;DHT22;39789;53.216;5.624;2022-12-07T07:57:34;3.50;99.90
53876;DHT22;39789;53.216;5.624;2022-12-07T08:00:00;3.50;99.90
53876;DHT22;39789;53.216;5.624;2022-12-07T08:02:26;3.60;99.90
53876;DHT22;39789;53.216;5.624;2022-12-07T08:04:55;5.40;99.90
53876;DHT22;39789;53.216;5.624;2022-12-07T08:07:22;4.00;99.90
53876;DHT22;39789;53.216;5.624;2022-12-07T08:09:47;4.00;99.90
53876;DHT22;39789;53.216;5.624;2022-12-07T08:12:13;4.00;99.90
53876;DHT22;39789;53.216;5.624;2022-12-07T08:14:39;4.00;99.90
53876;DHT22;39789;53.216;5.624;2022-12-07T08:17:04;3.90;99.90
53876;DHT22;39789;53.216;5.624;2022-12-07T08:19:30;5.80;99.90
53876;DHT22;39789;53.216;5.624;2022-12-07T08:22:19;3.80;99.90
53876;DHT22;39789;53.216;5.624;2022-12-07T08:24:44;3.70;99.90
53876;DHT22;39789;53.216;5.624;2022-12-07T08:27:10;3.60;99.90
53876;DHT22;39789;53.216;5.624;2022-12-07T08:29:35;3.60;99.90
53876;DHT22;39789;53.216;5.624;2022-12-07T08:32:01;3.50;99.90
53876;DHT22;39789;53.216;5.624;2022-12-07T08:34:27;3.50;99.90
53876;DHT22;39789;53.216;5.624;2022-12-07T08:36:52;3.40;99.90
53876;DHT22;39789;53.216;5.624;2022-12-07T08:39:18;3.30;99.90
53876;DHT22;39789;53.216;5.624;2022-12-07T08:41:43;3.30;99.90
53876;DHT22;39789;53.216;5.624;2022-12-07T08:44:09;3.30;99.90
53876;DHT22;39789;53.216;5.624;2022-12-07T08:46:42;3.30;99.90
53876;DHT22;39789;53.216;5.624;2022-12-07T08:49:17;3.30;99.90
53876;DHT22;39789;53.216;5.624;2022-12-07T08:51:44;3.30;99.90
53876;DHT22;39789;53.216;5.624;2022-12-07T08:54:12;3.30;99.90
53876;DHT22;39789;53.216;5.624;2022-12-07T08:56:39;3.30;99.90
53876;DHT22;39789;53.216;5.624;2022-12-07T08:59:05;3.40;99.90
53876;DHT22;39789;53.216;5.624;2022-12-07T09:01:32;3.40;99.90
53876;DHT22;39789;53.216;5.624;2022-12-07T09:07:39;3.70;99.90
53876;DHT22;39789;53.216;5.624;2022-12-07T09:10:05;3.90;99.90
53876;DHT22;39789;53.216;5.624;2022-12-07T09:12:31;4.10;99.90
53876;DHT22;39789;53.216;5.624;2022-12-07T09:14:56;4.20;99.90
53876;DHT22;39789;53.216;5.624;2022-12-07T09:17:22;4.30;99.90
53876;DHT22;39789;53.216;5.624;2022-12-07T09:19:47;4.40;99.90
53876;DHT22;39789;53.216;5.624;2022-12-07T09:22:13;4.40;99.90
53876;DHT22;39789;53.216;5.624;2022-12-07T09:24:39;4.40;99.90
53876;DHT22;39789;53.216;5.624;2022-12-07T09:27:04;4.40;99.90
53876;DHT22;39789;53.216;5.624;2022-12-07T09:29:30;4.40;99.90
53876;DHT22;39789;53.216;5.624;2022-12-07T09:31:55;4.40;99.90
53876;DHT22;39789;53.216;5.624;2022-12-07T09:34:21;4.40;99.90
53876;DHT22;39789;53.216;5.624;2022-12-07T09:36:47;4.40;99.90
53876;DHT22;39789;53.216;5.624;2022-12-07T09:39:12;4.50;99.90
53876;DHT22;39789;53.216;5.624;2022-12-07T09:41:40;4.60;99.90
53876;DHT22;39789;53.216;5.624;2022-12-07T09:44:11;4.70;99.90
53876;DHT22;39789;53.216;5.624;2022-12-07T09:50:07;4.80;99.90
53876;DHT22;39789;53.216;5.624;2022-12-07T09:52:37;4.80;99.90
53876;DHT22;39789;53.216;5.624;2022-12-07T09:55:03;4.90;99.90
53876;DHT22;39789;53.216;5.624;2022-12-07T09:57:31;5.00;99.90
53876;DHT22;39789;53.216;5.624;2022-12-07T10:00:01;5.10;99.90
53876;DHT22;39789;53.216;5.624;2022-12-07T10:02:42;5.10;99.90
53876;DHT22;39789;53.216;5.624;2022-12-07T10:05:13;5.20;99.90
53876;DHT22;39789;53.216;5.624;2022-12-07T10:07:39;5.30;99.90
53876;DHT22;39789;53.216;5.624;2022-12-07T10:10:14;5.50;99.90
53876;DHT22;39789;53.216;5.624;2022-12-07T10:12:57;5.60;99.90
53876;DHT22;39789;53.216;5.624;2022-12-07T10:15:36;5.60;99.90
53876;DHT22;39789;53.216;5.624;2022-12-07T10:18:17;5.60;99.90
53876;DHT22;39789;53.216;5.624;2022-12-07T10:20:48;5.60;99.90
53876;DHT22;39789;53.216;5.624;2022-12-07T10:23:16;5.50;99.90
53876;DHT22;39789;53.216;5.624;2022-12-07T10:25:43;5.40;99.90
53876;DHT22;39789;53.216;5.624;2022-12-07T10:28:18;5.40;99.90
53876;DHT22;39789;53.216;5.624;2022-12-07T10:30:48;5.30;99.90
53876;DHT22;39789;53.216;5.624;2022-12-07T10:33:38;5.30;99.90
53876;DHT22;39789;53.216;5.624;2022-12-07T10:36:37;5.30;99.90
53876;DHT22;39789;53.216;5.624;2022-12-07T10:41:53;5.40;99.90
53876;DHT22;39789;53.216;5.624;2022-12-07T10:44:22;5.30;99.90
53876;DHT22;39789;53.216;5.624;2022-12-07T10:51:38;5.30;99.90
53876;DHT22;39789;53.216;5.624;2022-12-07T10:59:14;5.30;99.90
53876;DHT22;39789;53.216;5.624;2022-12-07T11:02:15;5.30;99.90
53876;DHT22;39789;53.216;5.624;2022-12-07T11:05:06;5.30;99.90
53876;DHT22;39789;53.216;5.624;2022-12-07T11:13:28;5.40;99.90
53876;DHT22;39789;53.216;5.624;2022-12-07T11:16:24;5.30;99.90
53876;DHT22;39789;53.216;5.624;2022-12-07T11:22:00;5.20;99.90
53876;DHT22;39789;53.216;5.624;2022-12-07T11:27:40;5.20;99.90
53876;DHT22;39789;53.216;5.624;2022-12-07T11:30:23;5.00;99.90
53876;DHT22;39789;53.216;5.624;2022-12-07T11:35:49;5.40;99.90
53876;DHT22;39789;53.216;5.624;2022-12-07T11:38:23;5.40;99.90
53876;DHT22;39789;53.216;5.624;2022-12-07T11:40:54;5.40;99.90
53876;DHT22;39789;53.216;5.624;2022-12-07T11:43:27;5.60;99.90
53876;DHT22;39789;53.216;5.624;2022-12-07T11:46:11;5.60;99.90
53876;DHT22;39789;53.216;5.624;2022-12-07T11:52:55;5.70;99.90
53876;DHT22;39789;53.216;5.624;2022-12-07T11:55:26;5.80;99.90
53876;DHT22;39789;53.216;5.624;2022-12-07T11:58:04;5.90;99.90
53876;DHT22;39789;53.216;5.624;2022-12-07T12:00:30;6.00;99.90
53876;DHT22;39789;53.216;5.624;2022-12-07T12:03:22;6.00;99.90
53876;DHT22;39789;53.216;5.624;2022-12-07T12:05:45;6.10;99.90
53876;DHT22;39789;53.216;5.624;2022-12-07T12:10:55;6.10;99.90
53876;DHT22;39789;53.216;5.624;2022-12-07T12:16:02;5.90;99.90
53876;DHT22;39789;53.216;5.624;2022-12-07T12:18:58;5.80;99.90
53876;DHT22;39789;53.216;5.624;2022-12-07T12:21:28;5.70;99.90
53876;DHT22;39789;53.216;5.624;2022-12-07T12:23:56;5.60;99.90
53876;DHT22;39789;53.216;5.624;2022-12-07T12:26:25;5.60;99.90
53876;DHT22;39789;53.216;5.624;2022-12-07T12:33:51;5.60;99.90
53876;DHT22;39789;53.216;5.624;2022-12-07T12:36:20;5.60;99.90
53876;DHT22;39789;53.216;5.624;2022-12-07T12:46:56;5.50;99.90
53876;DHT22;39789;53.216;5.624;2022-12-07T12:53:23;5.20;99.90
53876;DHT22;39789;53.216;5.624;2022-12-07T12:58:45;5.10;99.90
53876;DHT22;39789;53.216;5.624;2022-12-07T13:01:37;5.10;99.90
53876;DHT22;39789;53.216;5.624;2022-12-07T13:04:20;5.10;99.90
53876;DHT22;39789;53.216;5.624;2022-12-07T13:06:47;5.10;99.90
53876;DHT22;39789;53.216;5.624;2022-12-07T13:09:23;5.20;99.90
53876;DHT22;39789;53.216;5.624;2022-12-07T13:11:56;5.20;99.90
53876;DHT22;39789;53.216;5.624;2022-12-07T13:19:59;5.20;99.90
53876;DHT22;39789;53.216;5.624;2022-12-07T13:25:29;5.10;99.90
53876;DHT22;39789;53.216;5.624;2022-12-07T13:28:19;5.00;99.90
53876;DHT22;39789;53.216;5.624;2022-12-07T13:33:48;4.70;99.90
53876;DHT22;39789;53.216;5.624;2022-12-07T13:36:30;4.10;99.90
53876;DHT22;39789;53.216;5.624;2022-12-07T13:41:42;4.70;99.90
53876;DHT22;39789;53.216;5.624;2022-12-07T13:44:14;4.90;99.90
53876;DHT22;39789;53.216;5.624;2022-12-07T13:47:09;4.90;99.90
53876;DHT22;39789;53.216;5.624;2022-12-07T13:53:19;4.50;99.90
53876;DHT22;39789;53.216;5.624;2022-12-07T13:55:46;4.00;99.90
53876;DHT22;39789;53.216;5.624;2022-12-07T13:58:13;6.30;99.90
53876;DHT22;39789;53.216;5.624;2022-12-07T14:01:16;4.50;99.90
53876;DHT22;39789;53.216;5.624;2022-12-07T14:03:54;4.30;99.90
53876;DHT22;39789;53.216;5.624;2022-12-07T14:06:27;4.70;99.90
53876;DHT22;39789;53.216;5.624;2022-12-07T14:09:07;5.70;99.90
53876;DHT22;39789;53.216;5.624;2022-12-07T14:11:48;5.70;99.90
53876;DHT22;39789;53.216;5.624;2022-12-07T14:14:18;4.20;99.90
53876;DHT22;39789;53.216;5.624;2022-12-07T14:17:15;5.30;99.90
53876;DHT22;39789;53.216;5.624;2022-12-07T14:19:52;4.50;99.90
53876;DHT22;39789;53.216;5.624;2022-12-07T14:24:49;5.20;99.90
53876;DHT22;39789;53.216;5.624;2022-12-07T14:27:23;5.40;99.90
53876;DHT22;39789;53.216;5.624;2022-12-07T14:29:51;4.80;99.90
53876;DHT22;39789;53.216;5.624;2022-12-07T14:32:22;3.80;99.90
53876;DHT22;39789;53.216;5.624;2022-12-07T14:34:54;5.10;99.90
53876;DHT22;39789;53.216;5.624;2022-12-07T14:37:20;5.30;99.90
53876;DHT22;39789;53.216;5.624;2022-12-07T14:39:46;4.20;99.90
53876;DHT22;39789;53.216;5.624;2022-12-07T14:42:11;3.70;99.90
53876;DHT22;39789;53.216;5.624;2022-12-07T14:44:37;3.90;99.90
53876;DHT22;39789;53.216;5.624;2022-12-07T14:54:19;4.20;99.90
53876;DHT22;39789;53.216;5.624;2022-12-07T14:56:45;4.20;99.90
53876;DHT22;39789;53.216;5.624;2022-12-07T14:59:15;4.60;99.90
53876;DHT22;39789;53.216;5.624;2022-12-07T15:01:41;4.40;99.90
53876;DHT22;39789;53.216;5.624;2022-12-07T15:04:06;4.40;99.90
53876;DHT22;39789;53.216;5.624;2022-12-07T15:06:32;4.40;99.90
53876;DHT22;39789;53.216;5.624;2022-12-07T15:08:58;4.40;99.90
53876;DHT22;39789;53.216;5.624;2022-12-07T15:11:24;4.30;99.90
53876;DHT22;39789;53.216;5.624;2022-12-07T15:13:50;4.30;99.90
53876;DHT22;39789;53.216;5.624;2022-12-07T15:16:37;4.10;99.90
53876;DHT22;39789;53.216;5.624;2022-12-07T15:19:05;4.10;99.90
53876;DHT22;39789;53.216;5.624;2022-12-07T15:21:30;4.00;99.90
53876;DHT22;39789;53.216;5.624;2022-12-07T15:23:56;4.00;99.90
53876;DHT22;39789;53.216;5.624;2022-12-07T15:26:22;4.00;99.90
53876;DHT22;39789;53.216;5.624;2022-12-07T15:28:47;4.00;99.90
53876;DHT22;39789;53.216;5.624;2022-12-07T15:31:15;3.90;99.90
53876;DHT22;39789;53.216;5.624;2022-12-07T15:33:41;3.90;99.90
53876;DHT22;39789;53.216;5.624;2022-12-07T15:36:07;3.80;99.90
53876;DHT22;39789;53.216;5.624;2022-12-07T15:38:32;3.80;99.90
53876;DHT22;39789;53.216;5.624;2022-12-07T15:40:58;3.80;99.90
53876;DHT22;39789;53.216;5.624;2022-12-07T15:43:24;3.80;99.90
53876;DHT22;39789;53.216;5.624;2022-12-07T15:46:08;3.70;99.90
53876;DHT22;39789;53.216;5.624;2022-12-07T15:48:35;4.60;99.90
53876;DHT22;39789;53.216;5.624;2022-12-07T15:51:03;3.60;99.90
53876;DHT22;39789;53.216;5.624;2022-12-07T15:53:28;4.90;99.90
53876;DHT22;39789;53.216;5.624;2022-12-07T15:55:54;3.50;99.90
53876;DHT22;39789;53.216;5.624;2022-12-07T15:58:19;3.50;99.90
53876;DHT22;39789;53.216;5.624;2022-12-07T16:00:45;3.50;99.90
53876;DHT22;39789;53.216;5.624;2022-12-07T16:03:14;3.40;99.90
53876;DHT22;39789;53.216;5.624;2022-12-07T16:05:40;3.40;99.90
53876;DHT22;39789;53.216;5.624;2022-12-07T16:08:07;3.40;99.90
53876;DHT22;39789;53.216;5.624;2022-12-07T16:10:36;3.40;99.90
53876;DHT22;39789;53.216;5.624;2022-12-07T16:13:02;3.40;99.90
53876;DHT22;39789;53.216;5.624;2022-12-07T16:15:27;3.40;99.90
53876;DHT22;39789;53.216;5.624;2022-12-07T16:17:53;3.40;99.90
53876;DHT22;39789;53.216;5.624;2022-12-07T16:20:24;3.40;99.90
53876;DHT22;39789;53.216;5.624;2022-12-07T16:22:55;3.50;99.90
53876;DHT22;39789;53.216;5.624;2022-12-07T16:25:20;3.50;99.90
53876;DHT22;39789;53.216;5.624;2022-12-07T16:27:46;3.50;99.90
53876;DHT22;39789;53.216;5.624;2022-12-07T16:30:13;3.50;99.90
53876;DHT22;39789;53.216;5.624;2022-12-07T16:32:39;3.50;99.90
53876;DHT22;39789;53.216;5.624;2022-12-07T16:35:05;3.50;99.90
53876;DHT22;39789;53.216;5.624;2022-12-07T16:37:32;3.50;99.90
53876;DHT22;39789;53.216;5.624;2022-12-07T16:39:58;3.50;99.90
53876;DHT22;39789;53.216;5.624;2022-12-07T16:42:27;3.40;99.90
53876;DHT22;39789;53.216;5.624;2022-12-07T16:45:07;3.40;99.90
53876;DHT22;39789;53.216;5.624;2022-12-07T16:47:36;3.40;99.90
53876;DHT22;39789;53.216;5.624;2022-12-07T16:50:06;3.50;99.90
53876;DHT22;39789;53.216;5.624;2022-12-07T16:56:22;3.50;99.90
53876;DHT22;39789;53.216;5.624;2022-12-07T16:58:48;3.50;99.90
53876;DHT22;39789;53.216;5.624;2022-12-07T17:01:17;3.60;99.90
53876;DHT22;39789;53.216;5.624;2022-12-07T17:03:45;3.60;99.90
53876;DHT22;39789;53.216;5.624;2022-12-07T17:06:12;3.60;99.90
53876;DHT22;39789;53.216;5.624;2022-12-07T17:08:39;2.90;99.90
53876;DHT22;39789;53.216;5.624;2022-12-07T17:11:20;3.00;99.90
53876;DHT22;39789;53.216;5.624;2022-12-07T17:13:46;4.70;99.90
53876;DHT22;39789;53.216;5.624;2022-12-07T17:18:58;3.80;99.90
53876;DHT22;39789;53.216;5.624;2022-12-07T17:21:24;4.50;99.90
53876;DHT22;39789;53.216;5.624;2022-12-07T17:26:22;3.70;99.90
53876;DHT22;39789;53.216;5.624;2022-12-07T17:31:16;3.70;99.90
53876;DHT22;39789;53.216;5.624;2022-12-07T17:33:42;3.50;99.90
53876;DHT22;39789;53.216;5.624;2022-12-07T17:36:12;3.10;99.90
53876;DHT22;39789;53.216;5.624;2022-12-07T17:38:39;2.80;99.90
53876;DHT22;39789;53.216;5.624;2022-12-07T17:41:12;3.20;99.90
53876;DHT22;39789;53.216;5.624;2022-12-07T17:47:19;3.20;99.90
53876;DHT22;39789;53.216;5.624;2022-12-07T17:49:46;3.00;99.90
53876;DHT22;39789;53.216;5.624;2022-12-07T17:52:13;4.50;99.90
53876;DHT22;39789;53.216;5.624;2022-12-07T17:54:57;3.80;99.90
53876;DHT22;39789;53.216;5.624;2022-12-07T17:57:23;4.40;99.90
53876;DHT22;39789;53.216;5.624;2022-12-07T17:59:48;4.70;99.90
53876;DHT22;39789;53.216;5.624;2022-12-07T18:02:15;2.50;99.90
53876;DHT22;39789;53.216;5.624;2022-12-07T18:04:41;4.30;99.90
53876;DHT22;39789;53.216;5.624;2022-12-07T18:07:08;3.10;99.90
53876;DHT22;39789;53.216;5.624;2022-12-07T18:09:34;3.20;99.90